»·PEaware :: FDX3171 KASE-KDEN

FDX3171 :: KASE-KDEN

FLIGHT INFORMATION

Flight Status: Arrived
Operator:
Federal Express
More flights by this operator :: More flights under this callsign
Pilot: David C. (16084)
Aircraft: BEECH AIRCRAFT BEECH AIRLINER
(B190)
More flights by this aircraft type
Origin: KASE Aspen-Pitkin Co/Sardy
United States
Destination: KDEN Denver Intl
United States
More flights between these airports :: More routes between these airports
Route: LINDZ8 DBL POWDR8
File this flight plan on PilotEdge
Remarks:
Altitude:
(Current/Filed)
23,000ft
Speed:
(Current/Filed)
252kts
Departed: 17-Dec-17 11:41 AM
Arrived: 17-Dec-17 12:27 PM
Distance/Time
Traveled:
108nm/0:46
Distance/Time
To Go:
Arrived

Flight Plot

Page will automatically refresh every two minutes.


Map Options




Map Legend


Flown Route
Filed Route
Departure Airport
Arrival Airport
Navaid (VOR, NDB)
Fix

Horizontal Profiles

Position Reports

Time Latitude Longitude Heading Altitude Ground
Speed
17-Dec-17 11:12 39.227399 -106.869076 248 7824ft 0kts
17-Dec-17 11:13 39.227399 -106.869076 248 7824ft 0kts
17-Dec-17 11:14 39.227399 -106.869076 248 7824ft 0kts
17-Dec-17 11:15 39.227399 -106.869076 248 7824ft 0kts
17-Dec-17 11:16 39.227399 -106.869076 248 7824ft 0kts
17-Dec-17 11:17 39.227399 -106.869076 248 7824ft 0kts
17-Dec-17 11:18 39.227399 -106.869076 248 7824ft 0kts
17-Dec-17 11:19 39.227399 -106.869076 248 7824ft 0kts
17-Dec-17 11:20 39.227399 -106.869076 248 7824ft 0kts
17-Dec-17 11:21 39.227399 -106.869076 248 7824ft 0kts
17-Dec-17 11:29 39.227399 -106.869076 248 7824ft 0kts
17-Dec-17 11:30 39.227399 -106.869076 248 7824ft 0kts
17-Dec-17 11:31 39.227399 -106.869076 248 7824ft 0kts
17-Dec-17 11:32 39.227399 -106.869076 248 7824ft 0kts
17-Dec-17 11:33 39.227399 -106.869076 248 7824ft 0kts
17-Dec-17 11:34 39.227399 -106.869076 248 7824ft 0kts
17-Dec-17 11:35 39.227399 -106.869076 248 7824ft 0kts
17-Dec-17 11:36 39.227399 -106.869076 248 7824ft 0kts
17-Dec-17 11:37 39.227399 -106.869076 248 7824ft 0kts
17-Dec-17 11:38 39.227399 -106.869076 248 7824ft 0kts
17-Dec-17 11:39 39.227399 -106.869076 248 7824ft 0kts
17-Dec-17 11:40 39.227399 -106.869076 248 7824ft 0kts
17-Dec-17 11:41 39.227399 -106.869076 248 7824ft 0kts
17-Dec-17 11:42 39.226715 -106.869146 157 7824ft 19kts
17-Dec-17 11:43 39.220630 -106.866194 159 7824ft 27kts
17-Dec-17 11:44 39.213999 -106.863078 160 7824ft 28kts
17-Dec-17 11:45 39.212494 -106.862574 220 7824ft 0kts
17-Dec-17 11:46 39.212300 -106.862888 244 7824ft 7kts
17-Dec-17 11:47 39.235313 -106.874509 344 8227ft 179kts
17-Dec-17 11:48 39.269889 -106.907809 283 10890ft 178kts
17-Dec-17 11:49 39.282207 -106.970857 282 13162ft 186kts
17-Dec-17 11:50 39.301526 -107.032468 307 15261ft 189kts
17-Dec-17 11:51 39.335703 -107.082798 309 17192ft 190kts
17-Dec-17 11:52 39.371459 -107.133623 310 18815ft 194kts
17-Dec-17 11:53 39.407887 -107.113326 90 20154ft 212kts
17-Dec-17 11:54 39.414044 -107.036721 78 21388ft 219kts
17-Dec-17 11:55 39.427308 -106.959368 75 22871ft 224kts
17-Dec-17 11:56 39.435140 -106.873351 105 23216ft 262kts
17-Dec-17 11:57 39.414941 -106.777089 106 23127ft 286kts
17-Dec-17 11:58 39.393898 -106.676813 106 23101ft 292kts
17-Dec-17 11:59 39.372658 -106.575827 106 23071ft 294kts
17-Dec-17 12:00 39.351050 -106.473531 106 23054ft 295kts
17-Dec-17 12:01 39.329431 -106.371686 106 23054ft 294kts
17-Dec-17 12:02 39.307823 -106.270367 107 23051ft 294kts
17-Dec-17 12:03 39.286014 -106.168605 106 23052ft 294kts
17-Dec-17 12:04 39.264134 -106.066966 107 23052ft 294kts
17-Dec-17 12:05 39.242398 -105.966379 106 23058ft 294kts
17-Dec-17 12:06 39.220344 -105.864971 107 23066ft 294kts
17-Dec-17 12:07 39.226908 -105.767613 53 23074ft 294kts
17-Dec-17 12:08 39.275242 -105.684246 51 23001ft 294kts
17-Dec-17 12:09 39.323611 -105.602467 51 21013ft 293kts
17-Dec-17 12:10 39.371951 -105.520877 51 19072ft 292kts
17-Dec-17 12:11 39.419718 -105.440137 51 17317ft 282kts
17-Dec-17 12:12 39.464722 -105.363816 51 17054ft 275kts
17-Dec-17 12:13 39.510704 -105.285455 52 16671ft 296kts
17-Dec-17 12:14 39.557398 -105.205822 51 14725ft 279kts
17-Dec-17 12:15 39.603220 -105.127512 52 12783ft 292kts
17-Dec-17 12:16 39.650362 -105.046547 51 11102ft 269kts
17-Dec-17 12:17 39.695610 -104.968823 51 11021ft 276kts
17-Dec-17 12:18 39.747957 -104.902000 10 11044ft 269kts
17-Dec-17 12:19 39.821131 -104.884262 8 11028ft 270kts
17-Dec-17 12:20 39.894456 -104.866883 8 11043ft 269kts
17-Dec-17 12:21 39.964437 -104.850310 8 9796ft 232kts
17-Dec-17 12:22 40.023949 -104.836981 8 7779ft 215kts
17-Dec-17 12:23 40.049730 -104.778322 78 7060ft 199kts
17-Dec-17 12:24 40.062091 -104.708000 79 7109ft 185kts
17-Dec-17 12:25 40.031265 -104.662760 150 7045ft 175kts
17-Dec-17 12:26 39.986995 -104.658718 180 7043ft 158kts
17-Dec-17 12:27 39.942881 -104.659130 180 7034ft 161kts
17-Dec-17 12:28 39.905406 -104.659583 180 6319ft 117kts
17-Dec-17 12:29 39.870890 -104.659901 183 5661ft 116kts
17-Dec-17 12:30 39.844092 -104.660354 180 5436ft 53kts
17-Dec-17 12:31 39.830959 -104.660523 180 5436ft 45kts
17-Dec-17 12:32 39.828449 -104.667578 268 5436ft 43kts
17-Dec-17 12:33 39.831097 -104.674089 0 5436ft 0kts

Navigation Log

Ident Type
1. KASE Airport
2. LINDZ Fix
3. LINDZ Fix
4. DBL Navaid
5. DBL Navaid
6. JNETT Fix
7. BASEE Fix
8. SKEED Fix
9. COLAS Fix
10. POWDR Fix
11. HLLIE Fix
12. SLOPE Fix
13. DVV Navaid
14. KDEN Airport